Time;durP1;ratioP1;P1;durP2;ratioP2;P2;SDS_P1;SDS_P2;PMS_P1;PMS_P2;Temp;Humidity;BMP_temperature;BMP_pressure;BME280_temperature;BME280_humidity;BME280_pressure;Samples;Min_cycle;Max_cycle;Signal;HPM_P1;HPM_P2
2022/06/17 00:01:59;;;;;;;0.60;0.60;;;;;;;23.47;nan;95376.66;4957497;28;20200;-64
2022/06/17 00:04:25;;;;;;;0.70;0.70;;;;;;;23.86;nan;95372.78;4951266;28;20253;-66
2022/06/17 00:07:03;;;;;;;0.30;0.30;;;;;;;23.98;nan;95359.44;4951619;28;20203;-64
2022/06/17 00:09:33;;;;;;;2.73;1.03;;;;;;;24.01;nan;95356.16;4938322;28;20227;-65
2022/06/17 00:12:00;;;;;;;1.03;0.73;;;;;;;23.99;nan;95355.66;4952055;28;20234;-64
2022/06/17 00:14:31;;;;;;;1.00;0.50;;;;;;;24.08;nan;95364.44;4951875;28;20195;-64
2022/06/17 00:17:01;;;;;;;0.70;0.60;;;;;;;24.12;nan;95360.00;4951551;29;20195;-64
2022/06/17 00:19:28;;;;;;;0.40;0.40;;;;;;;23.86;nan;95354.81;4937969;28;20194;-65
2022/06/17 00:21:55;;;;;;;0.77;0.60;;;;;;;23.94;nan;95364.66;4952017;28;20257;-64
2022/06/17 00:24:29;;;;;;;0.40;0.40;;;;;;;23.76;nan;95367.78;4941734;28;20208;-65
2022/06/17 00:26:57;;;;;;;0.80;0.70;;;;;;;23.93;nan;95362.31;4964813;28;20234;-64
2022/06/17 00:29:27;;;;;;;0.80;0.80;;;;;;;24.33;nan;95371.44;4957257;28;20216;-64
2022/06/17 00:31:54;;;;;;;0.80;0.80;;;;;;;24.02;nan;95368.41;4954837;28;20316;-64
2022/06/17 00:34:21;;;;;;;0.70;0.70;;;;;;;23.91;nan;95369.88;4969381;28;20203;-65
2022/06/17 00:36:49;;;;;;;0.30;0.30;;;;;;;23.32;nan;95373.78;4967655;28;20204;-64
2022/06/17 00:39:22;;;;;;;0.60;0.60;;;;;;;23.73;nan;95374.59;4955355;28;20199;-64
2022/06/17 00:41:56;;;;;;;0.90;0.90;;;;;;;24.01;nan;95370.28;4941243;28;20707;-64
2022/06/17 00:44:42;;;;;;;0.70;0.70;;;;;;;23.49;nan;95369.09;4953819;28;20713;-64
2022/06/17 00:47:29;;;;;;;0.80;0.80;;;;;;;23.93;nan;95356.97;4966110;28;20188;-64
2022/06/17 00:50:13;;;;;;;0.60;0.60;;;;;;;23.99;nan;95359.13;4954857;28;20234;-67
2022/06/17 00:52:48;;;;;;;0.80;0.80;;;;;;;24.19;nan;95349.53;4948938;28;20199;-64
2022/06/17 00:55:30;;;;;;;0.80;0.80;;;;;;;24.31;nan;95359.47;4957923;28;20207;-65
2022/06/17 00:58:00;;;;;;;0.60;0.60;;;;;;;24.21;nan;95347.31;4962479;28;20289;-64
2022/06/17 01:00:31;;;;;;;1.27;1.17;;;;;;;24.16;nan;95350.16;4958543;28;20821;-64
2022/06/17 01:03:06;;;;;;;4.17;1.93;;;;;;;23.93;nan;95351.63;4945781;29;20308;-64
2022/06/17 01:05:47;;;;;;;0.77;0.77;;;;;;;23.88;nan;95351.81;4949661;28;20239;-65
2022/06/17 01:09:57;;;;;;;0.70;0.70;;;;;;;23.87;nan;95347.56;4963953;28;20218;-65
2022/06/17 01:11:09;;;;;;;0.70;0.67;;;;;;;23.89;nan;95350.69;4954753;28;20204;-65
2022/06/17 01:13:37;;;;;;;0.83;0.83;;;;;;;23.87;nan;95342.22;4953126;29;20355;-64
2022/06/17 01:16:05;;;;;;;1.13;0.70;;;;;;;23.90;nan;95353.03;4939247;28;20196;-64
2022/06/17 01:18:38;;;;;;;0.97;0.80;;;;;;;23.81;nan;95348.88;4968942;28;20738;-64
2022/06/17 01:21:19;;;;;;;0.50;0.50;;;;;;;23.85;nan;95350.56;4965100;28;20375;-65
2022/06/17 01:23:48;;;;;;;0.70;0.70;;;;;;;23.53;nan;95347.84;4946388;28;20200;-66
2022/06/17 01:26:16;;;;;;;0.50;0.50;;;;;;;23.39;nan;95342.75;4954046;28;20196;-64
2022/06/17 01:28:44;;;;;;;0.50;0.50;;;;;;;23.26;nan;95343.75;4963092;28;20227;-64
2022/06/17 01:31:12;;;;;;;0.73;0.70;;;;;;;23.65;nan;95331.88;4955926;28;20215;-65
2022/06/17 01:33:42;;;;;;;0.60;0.60;;;;;;;23.77;nan;95331.91;4952745;28;20203;-65
2022/06/17 01:36:25;;;;;;;0.43;0.43;;;;;;;23.31;nan;95330.22;4955105;28;20216;-63
2022/06/17 01:38:56;;;;;;;0.40;0.40;;;;;;;23.17;nan;95334.19;4955036;29;20612;-65
2022/06/17 01:41:26;;;;;;;0.50;0.50;;;;;;;23.13;nan;95329.50;4954846;28;20207;-65
2022/06/17 01:44:04;;;;;;;0.37;0.37;;;;;;;23.30;nan;95328.66;4963251;28;20208;-65
2022/06/17 01:46:43;;;;;;;0.50;0.50;;;;;;;22.73;nan;95328.28;4940725;29;20200;-64
2022/06/17 01:49:46;;;;;;;0.40;0.40;;;;;;;22.88;nan;95317.03;4935983;29;20212;-65
2022/06/17 01:52:28;;;;;;;0.30;0.30;;;;;;;23.21;nan;95319.09;4924514;29;20212;-64
2022/06/17 01:55:20;;;;;;;0.67;0.67;;;;;;;23.40;nan;95325.59;4944296;29;20192;-64
2022/06/17 01:57:58;;;;;;;1.03;0.87;;;;;;;23.13;nan;95324.16;4956329;28;20282;-63
2022/06/17 02:00:30;;;;;;;0.87;0.87;;;;;;;23.11;nan;95323.69;4953640;28;20298;-64
2022/06/17 02:03:10;;;;;;;0.70;0.70;;;;;;;23.29;nan;95320.91;4963818;28;20200;-64
2022/06/17 02:05:40;;;;;;;0.80;0.60;;;;;;;23.30;nan;95323.31;4952207;28;20211;-64
2022/06/17 02:08:08;;;;;;;0.80;0.80;;;;;;;23.35;nan;95328.47;4938373;29;20227;-64
2022/06/17 02:10:39;;;;;;;0.40;0.40;;;;;;;23.41;nan;95329.81;4962890;28;20231;-64
2022/06/17 02:13:08;;;;;;;0.50;0.50;;;;;;;23.32;nan;95331.00;4953376;28;20202;-63
2022/06/17 02:15:54;;;;;;;0.50;0.50;;;;;;;23.12;nan;95341.28;4951999;29;20212;-65
2022/06/17 02:18:38;;;;;;;0.30;0.30;;;;;;;23.17;nan;95339.53;4952113;29;20200;-64
2022/06/17 02:21:13;;;;;;;0.93;0.87;;;;;;;23.33;nan;95343.25;4951826;28;20200;-64
2022/06/17 02:23:43;;;;;;;0.53;0.53;;;;;;;23.36;nan;95337.25;4953275;28;20258;-65
2022/06/17 02:26:12;;;;;;;0.57;0.57;;;;;;;23.33;nan;95338.69;4952655;28;20304;-63
2022/06/17 02:28:41;;;;;;;0.50;0.50;;;;;;;23.33;nan;95343.25;4951755;28;20216;-66
2022/06/17 02:31:09;;;;;;;0.40;0.40;;;;;;;23.11;nan;95342.41;4952989;28;20207;-64
2022/06/17 02:33:38;;;;;;;0.93;0.93;;;;;;;23.07;nan;95341.47;4952811;28;20193;-64
2022/06/17 02:36:18;;;;;;;1.43;0.63;;;;;;;23.15;nan;95342.53;4952869;28;20597;-63
2022/06/17 02:38:46;;;;;;;1.53;1.30;;;;;;;22.95;nan;95333.38;4957234;28;20294;-64
2022/06/17 02:41:19;;;;;;;0.53;0.53;;;;;;;23.09;nan;95323.22;4966371;28;20195;-63
2022/06/17 02:44:00;;;;;;;0.33;0.33;;;;;;;23.03;nan;95319.16;4952682;28;20209;-65
2022/06/17 02:46:31;;;;;;;1.50;0.77;;;;;;;23.07;nan;95341.47;4963508;28;20195;-65
2022/06/17 02:49:01;;;;;;;0.43;0.33;;;;;;;22.87;nan;95342.22;4952425;28;20596;-64
2022/06/17 02:51:34;;;;;;;0.47;0.47;;;;;;;22.63;nan;95338.53;4967496;28;20686;-63
2022/06/17 02:54:04;;;;;;;0.90;0.60;;;;;;;22.77;nan;95344.47;4970160;28;20342;-64
2022/06/17 02:56:34;;;;;;;0.60;0.50;;;;;;;22.67;nan;95345.59;4961891;28;20207;-64
2022/06/17 02:59:15;;;;;;;0.40;0.40;;;;;;;22.58;nan;95344.84;4951321;29;20207;-64
2022/06/17 03:01:45;;;;;;;1.07;1.07;;;;;;;22.62;nan;95340.44;4963833;28;20223;-63
2022/06/17 03:04:32;;;;;;;1.43;0.93;;;;;;;22.71;nan;95343.84;4939484;28;20253;-64
2022/06/17 03:07:02;;;;;;;1.20;1.10;;;;;;;22.63;nan;95341.19;4967428;28;20302;-65
2022/06/17 03:09:31;;;;;;;0.57;0.57;;;;;;;22.46;nan;95347.38;4953391;28;20487;-64
2022/06/17 03:12:10;;;;;;;0.40;0.40;;;;;;;22.41;nan;95350.19;4966942;28;20272;-65
2022/06/17 03:14:55;;;;;;;0.30;0.30;;;;;;;22.19;nan;95346.97;4945072;28;20187;-64
2022/06/17 03:17:24;;;;;;;0.57;0.40;;;;;;;22.44;nan;95338.91;4955384;28;20214;-65
2022/06/17 03:19:55;;;;;;;1.13;0.47;;;;;;;22.43;nan;95341.88;4950805;28;20451;-65
2022/06/17 03:22:24;;;;;;;0.67;0.67;;;;;;;22.55;nan;95334.81;4952519;28;20650;-65
2022/06/17 03:25:01;;;;;;;0.40;0.40;;;;;;;22.50;nan;95334.94;4950791;29;20192;-65
2022/06/17 03:27:40;;;;;;;0.40;0.40;;;;;;;22.72;nan;95344.63;4964173;28;20709;-66
2022/06/17 03:30:11;;;;;;;0.90;0.90;;;;;;;22.48;nan;95347.81;4942407;29;20502;-65
2022/06/17 03:32:43;;;;;;;0.60;0.60;;;;;;;22.78;nan;95348.69;4961791;28;20572;-65
2022/06/17 03:35:22;;;;;;;0.40;0.40;;;;;;;22.89;nan;95345.34;4950473;28;20299;-65
2022/06/17 03:37:57;;;;;;;0.50;0.50;;;;;;;22.77;nan;95337.22;4962077;28;20220;-67
2022/06/17 03:40:41;;;;;;;0.80;0.50;;;;;;;22.82;nan;95344.28;4942572;29;20204;-64
2022/06/17 03:43:15;;;;;;;0.60;0.60;;;;;;;22.90;nan;95352.25;4949198;28;20245;-64
2022/06/17 03:46:12;;;;;;;0.93;0.33;;;;;;;22.85;nan;95359.66;4955668;28;20225;-64
2022/06/17 03:49:02;;;;;;;0.53;0.53;;;;;;;22.59;nan;95346.41;4953891;28;20212;-63
2022/06/17 03:51:31;;;;;;;0.50;0.47;;;;;;;22.74;nan;95364.59;4961380;28;20489;-65
2022/06/17 03:54:02;;;;;;;1.70;0.90;;;;;;;22.63;nan;95363.38;4969024;28;20207;-65
2022/06/17 03:56:32;;;;;;;0.53;0.53;;;;;;;22.57;nan;95361.19;4950250;28;20674;-64
2022/06/17 03:59:04;;;;;;;0.50;0.50;;;;;;;22.64;nan;95366.81;4976394;28;20211;-65
2022/06/17 04:01:39;;;;;;;1.60;0.60;;;;;;;22.65;nan;95371.84;4951401;28;20195;-63
2022/06/17 04:04:17;;;;;;;0.73;0.50;;;;;;;22.77;nan;95377.28;4964963;28;20729;-63
2022/06/17 04:06:48;;;;;;;0.40;0.40;;;;;;;22.50;nan;95375.00;4948088;29;20198;-65
2022/06/17 04:09:29;;;;;;;0.57;0.57;;;;;;;22.63;nan;95368.69;4948967;28;20227;-64
2022/06/17 04:12:05;;;;;;;0.50;0.50;;;;;;;22.65;nan;95376.41;4957734;28;20585;-64
2022/06/17 04:14:49;;;;;;;0.70;0.50;;;;;;;22.54;nan;95372.47;4949277;28;20215;-65
2022/06/17 04:17:29;;;;;;;0.67;0.67;;;;;;;22.60;nan;95382.72;4945863;28;20299;-65
2022/06/17 04:20:30;;;;;;;1.30;1.20;;;;;;;22.69;nan;95372.78;4948816;29;20210;-65
2022/06/17 04:23:27;;;;;;;0.90;0.87;;;;;;;22.65;nan;95387.88;4959926;28;20192;-65
2022/06/17 04:25:59;;;;;;;1.20;0.87;;;;;;;22.05;nan;95390.63;4931386;28;20197;-64
2022/06/17 04:28:41;;;;;;;0.77;0.77;;;;;;;22.12;nan;95403.47;4948582;29;20201;-64
2022/06/17 04:31:16;;;;;;;0.50;0.50;;;;;;;22.31;nan;95392.47;4964191;28;20710;-65
2022/06/17 04:33:51;;;;;;;0.43;0.43;;;;;;;22.52;nan;95394.16;4948875;28;20250;-67
2022/06/17 04:36:24;;;;;;;0.87;0.87;;;;;;;22.29;nan;95384.00;4948464;28;20272;-67
2022/06/17 04:39:18;;;;;;;1.53;1.43;;;;;;;22.89;nan;95379.31;4964796;28;20714;-67
2022/06/17 04:42:04;;;;;;;8.63;6.20;;;;;;;23.05;nan;95386.47;4954103;28;20203;-68
2022/06/17 04:44:34;;;;;;;13.73;8.97;;;;;;;23.09;nan;95379.38;4948688;28;20199;-66
2022/06/17 04:47:11;;;;;;;3.40;2.70;;;;;;;23.07;nan;95381.59;4962885;28;20203;-65
2022/06/17 04:49:52;;;;;;;0.33;0.33;;;;;;;22.47;nan;95386.31;4949062;29;20310;-64
2022/06/17 04:52:34;;;;;;;0.40;0.40;;;;;;;22.75;nan;95382.19;4935392;29;20235;-67
2022/06/17 04:55:24;;;;;;;0.67;0.67;;;;;;;22.88;nan;95381.19;4963642;28;20230;-64
2022/06/17 04:57:59;;;;;;;1.00;0.90;;;;;;;22.91;nan;95385.91;4964302;28;20204;-66
2022/06/17 05:00:28;;;;;;;0.50;0.50;;;;;;;23.15;nan;95385.31;4935245;28;20592;-65
2022/06/17 05:02:58;;;;;;;0.93;0.77;;;;;;;22.96;nan;95383.03;4948695;29;20196;-65
2022/06/17 05:05:36;;;;;;;0.80;0.80;;;;;;;22.80;nan;95379.34;4949647;28;20298;-66
2022/06/17 05:08:22;;;;;;;0.57;0.57;;;;;;;22.77;nan;95379.19;4950947;28;20207;-67
2022/06/17 05:10:55;;;;;;;13.67;10.20;;;;;;;23.06;nan;95377.31;4954472;28;20242;-68
2022/06/17 05:13:34;;;;;;;20.60;12.10;;;;;;;23.58;nan;95371.72;4948686;28;20215;-68
2022/06/17 05:16:01;;;;;;;2.87;2.57;;;;;;;23.69;nan;95378.25;4955153;28;20210;-65
2022/06/17 05:18:29;;;;;;;2.10;1.37;;;;;;;23.80;nan;95374.06;4961550;28;20255;-67
2022/06/17 05:21:19;;;;;;;0.47;0.47;;;;;;;23.61;nan;95376.44;4964667;28;20211;-68
2022/06/17 05:23:54;;;;;;;1.13;0.70;;;;;;;23.67;nan;95383.13;4964442;28;20212;-68
2022/06/17 05:26:21;;;;;;;11.17;6.33;;;;;;;23.60;nan;95374.84;4943195;29;20200;-68
2022/06/17 05:28:48;;;;;;;5.53;5.00;;;;;;;23.75;nan;95369.72;4963563;28;20283;-66
2022/06/17 05:31:18;;;;;;;1.30;1.20;;;;;;;23.68;nan;95356.06;4951492;29;20322;-67
2022/06/17 05:33:50;;;;;;;1.90;1.23;;;;;;;23.93;nan;95373.03;4954856;28;20234;-69
2022/06/17 05:36:18;;;;;;;0.50;0.50;;;;;;;23.74;nan;95367.38;4961508;28;20207;-68
2022/06/17 05:38:48;;;;;;;0.80;0.80;;;;;;;23.26;nan;95375.03;4949051;28;20271;-69
2022/06/17 05:41:20;;;;;;;0.70;0.70;;;;;;;23.88;nan;95360.63;4952484;28;20195;-69
2022/06/17 05:43:49;;;;;;;0.87;0.60;;;;;;;23.83;nan;95368.09;4966454;28;20321;-71
2022/06/17 05:46:24;;;;;;;1.07;0.80;;;;;;;23.29;nan;95359.16;4932448;29;20585;-69
2022/06/17 05:49:05;;;;;;;0.60;0.60;;;;;;;23.95;nan;95338.69;4966883;28;20212;-70
2022/06/17 05:51:55;;;;;;;1.83;0.60;;;;;;;24.07;nan;95346.78;4947092;28;20619;-68
2022/06/17 05:54:41;;;;;;;0.83;0.80;;;;;;;24.30;nan;95352.56;4961852;28;20679;-68
2022/06/17 05:57:09;;;;;;;1.17;1.07;;;;;;;24.32;nan;95353.81;4958468;28;20254;-70
2022/06/17 05:59:36;;;;;;;0.30;0.30;;;;;;;24.10;nan;95362.22;4962858;28;20202;-69
2022/06/17 06:02:06;;;;;;;0.90;0.90;;;;;;;24.25;nan;95358.91;4937693;28;20208;-69
2022/06/17 06:04:53;;;;;;;0.27;0.23;;;;;;;23.95;nan;95344.84;4951603;28;20339;-69
2022/06/17 06:07:22;;;;;;;0.53;0.53;;;;;;;24.14;nan;95335.56;4966435;28;20259;-70
2022/06/17 06:09:49;;;;;;;0.40;0.40;;;;;;;24.16;nan;95350.16;4963701;28;20227;-69
2022/06/17 06:12:18;;;;;;;0.70;0.57;;;;;;;23.54;nan;95349.41;4948836;28;20585;-70
2022/06/17 06:14:45;;;;;;;4.53;1.63;;;;;;;23.68;nan;95345.38;4952494;28;20258;-69
2022/06/17 06:17:14;;;;;;;0.90;0.80;;;;;;;23.63;nan;95348.22;4967146;28;20286;-70
2022/06/17 06:19:42;;;;;;;0.37;0.37;;;;;;;23.63;nan;95348.22;4949905;28;20208;-69
2022/06/17 06:22:09;;;;;;;0.97;0.70;;;;;;;24.02;nan;95355.03;4959529;28;20350;-69
2022/06/17 06:24:38;;;;;;;0.73;0.73;;;;;;;24.16;nan;95350.16;4950844;28;20199;-69
2022/06/17 06:27:05;;;;;;;0.50;0.50;;;;;;;23.79;nan;95351.09;4951006;28;20210;-70
2022/06/17 06:29:36;;;;;;;0.30;0.30;;;;;;;24.37;nan;95353.59;4950641;28;20298;-71
2022/06/17 06:32:04;;;;;;;0.50;0.50;;;;;;;24.87;nan;95339.97;4951036;29;20218;-69
2022/06/17 06:34:41;;;;;;;0.67;0.67;;;;;;;24.90;nan;95342.78;4936929;29;20246;-70
2022/06/17 06:37:10;;;;;;;0.50;0.50;;;;;;;25.14;nan;95343.88;4950556;28;20212;-70
2022/06/17 06:39:37;;;;;;;0.50;0.50;;;;;;;25.09;nan;95340.31;4950332;28;20199;-70
2022/06/17 06:42:05;;;;;;;0.30;0.30;;;;;;;25.30;nan;95334.03;4950720;28;20199;-70
2022/06/17 06:44:37;;;;;;;3.50;1.50;;;;;;;25.13;nan;95312.81;4951628;28;20686;-70
2022/06/17 06:47:12;;;;;;;1.50;0.97;;;;;;;25.14;nan;95330.47;4965798;28;20202;-70
2022/06/17 06:50:06;;;;;;;0.60;0.60;;;;;;;24.33;nan;95338.50;4947585;28;20231;-69
2022/06/17 06:52:33;;;;;;;0.43;0.43;;;;;;;25.06;nan;95330.25;4938693;29;20192;-69
2022/06/17 06:55:01;;;;;;;0.93;0.77;;;;;;;24.90;nan;95315.97;4950341;28;20222;-68
2022/06/17 06:57:28;;;;;;;0.77;0.70;;;;;;;24.30;nan;95333.81;4950505;28;20650;-69
2022/06/17 07:00:06;;;;;;;0.80;0.80;;;;;;;25.30;nan;95342.88;4950557;29;20251;-70
2022/06/17 07:02:34;;;;;;;0.83;0.83;;;;;;;25.12;nan;95335.38;4956248;28;20198;-69
2022/06/17 07:05:01;;;;;;;0.47;0.47;;;;;;;25.48;nan;95327.31;4969398;28;20321;-70
2022/06/17 07:07:33;;;;;;;1.13;0.70;;;;;;;25.63;nan;95316.69;4952492;28;20578;-69
2022/06/17 07:10:00;;;;;;;0.40;0.40;;;;;;;24.93;nan;95314.50;4951627;29;20200;-69
2022/06/17 07:12:27;;;;;;;0.70;0.60;;;;;;;24.57;nan;95328.63;4964953;28;20678;-70
2022/06/17 07:14:54;;;;;;;1.13;0.97;;;;;;;24.61;nan;95331.44;4943631;28;20226;-69
2022/06/17 07:17:21;;;;;;;0.63;0.60;;;;;;;25.13;nan;95328.91;4946351;28;20290;-69
2022/06/17 07:19:48;;;;;;;0.97;0.80;;;;;;;25.42;nan;95323.31;4951218;29;20192;-70
2022/06/17 07:22:15;;;;;;;0.70;0.70;;;;;;;25.25;nan;95331.59;4963814;28;20198;-71
2022/06/17 07:24:43;;;;;;;0.50;0.50;;;;;;;25.54;nan;95296.47;4951820;28;20258;-69
2022/06/17 07:27:09;;;;;;;0.63;0.63;;;;;;;26.18;nan;95325.88;4951371;28;20200;-70
2022/06/17 07:29:37;;;;;;;0.60;0.60;;;;;;;25.63;nan;95327.41;4950991;28;20266;-70
2022/06/17 07:32:04;;;;;;;0.80;0.80;;;;;;;26.16;nan;95320.88;4960512;28;20706;-70
2022/06/17 07:34:31;;;;;;;0.57;0.57;;;;;;;25.63;nan;95316.69;4968677;28;20261;-70
2022/06/17 07:39:57;;;;;;;0.60;0.60;;;;;;;25.70;nan;95303.44;4951568;28;20199;-71
2022/06/17 07:42:37;;;;;;;0.60;0.60;;;;;;;25.95;nan;95312.19;4953255;28;20282;-69
2022/06/17 07:45:10;;;;;;;0.73;0.73;;;;;;;26.01;nan;95310.81;4951293;28;20285;-69
2022/06/17 07:47:39;;;;;;;4.20;1.17;;;;;;;26.25;nan;95308.06;4946527;29;20243;-69
2022/06/17 07:50:10;;;;;;;0.70;0.70;;;;;;;26.38;nan;95301.50;4940200;28;20200;-69
2022/06/17 07:52:36;;;;;;;0.70;0.70;;;;;;;25.92;nan;95304.81;4938104;28;20196;-71
2022/06/17 07:55:04;;;;;;;0.50;0.50;;;;;;;26.64;nan;95296.38;4950804;28;20231;-70
2022/06/17 07:57:35;;;;;;;0.57;0.57;;;;;;;27.06;nan;95293.19;4963947;28;20199;-70
2022/06/17 08:00:09;;;;;;;3.63;1.13;;;;;;;27.12;nan;95295.25;4950860;29;20309;-70
2022/06/17 08:02:39;;;;;;;1.43;1.33;;;;;;;26.93;nan;95282.50;4950888;28;20208;-70
2022/06/17 08:05:06;;;;;;;0.43;0.43;;;;;;;26.66;nan;95294.13;4950569;28;20255;-71
2022/06/17 08:07:33;;;;;;;0.90;0.90;;;;;;;26.80;nan;95294.53;4950648;28;20210;-69
2022/06/17 08:10:00;;;;;;;1.13;0.97;;;;;;;26.93;nan;95287.88;4951253;28;20206;-71
2022/06/17 08:12:27;;;;;;;0.67;0.63;;;;;;;27.08;nan;95294.38;4950722;28;20220;-70
2022/06/17 08:14:56;;;;;;;0.87;0.87;;;;;;;26.75;nan;95286.69;4958723;28;20926;-72
2022/06/17 08:17:23;;;;;;;0.80;0.80;;;;;;;27.11;nan;95282.16;4955157;28;20208;-69
2022/06/17 08:19:55;;;;;;;0.63;0.63;;;;;;;27.30;nan;95287.59;4957775;28;20199;-69
2022/06/17 08:22:26;;;;;;;0.77;0.60;;;;;;;27.70;nan;95280.75;4955843;28;20210;-70
2022/06/17 08:24:55;;;;;;;0.73;0.67;;;;;;;27.55;nan;95278.94;4951171;28;20204;-71
2022/06/17 08:27:22;;;;;;;0.53;0.53;;;;;;;27.51;nan;95266.53;4965540;28;20678;-70
2022/06/17 08:29:51;;;;;;;0.90;0.90;;;;;;;27.72;nan;95272.31;4955636;28;20256;-70
2022/06/17 08:35:04;;;;;;;0.83;0.83;;;;;;;27.42;nan;95271.34;4937391;28;20675;-69
2022/06/17 08:37:32;;;;;;;1.00;0.90;;;;;;;27.30;nan;95264.13;4962890;28;20554;-69
2022/06/17 08:40:00;;;;;;;1.00;0.70;;;;;;;27.25;nan;95261.72;4956427;28;20202;-68
2022/06/17 08:42:57;;;;;;;1.43;1.33;;;;;;;28.09;nan;95257.31;4958689;28;20610;-69
2022/06/17 08:45:31;;;;;;;0.70;0.70;;;;;;;28.39;nan;95260.94;4954168;28;20200;-70
2022/06/17 08:48:23;;;;;;;1.77;1.23;;;;;;;27.80;nan;95234.44;4954077;28;20195;-70
2022/06/17 08:51:00;;;;;;;1.60;1.33;;;;;;;28.49;nan;95257.63;4953922;28;20238;-69
2022/06/17 08:53:47;;;;;;;0.70;0.70;;;;;;;28.55;nan;95253.53;4953775;28;20194;-70
2022/06/17 08:56:34;;;;;;;1.47;1.30;;;;;;;27.85;nan;95254.91;4942871;28;20214;-70
2022/06/17 08:59:16;;;;;;;0.90;0.90;;;;;;;28.31;nan;95258.47;4964129;28;20196;-70
2022/06/17 09:02:08;;;;;;;0.87;0.83;;;;;;;28.67;nan;95255.25;4945846;29;20208;-69
2022/06/17 09:04:58;;;;;;;1.30;1.17;;;;;;;28.71;nan;95251.50;4953467;28;20230;-69
2022/06/17 09:07:37;;;;;;;1.53;1.20;;;;;;;28.80;nan;95259.31;4953261;28;20204;-70
2022/06/17 09:10:07;;;;;;;1.10;0.97;;;;;;;29.04;nan;95258.13;4953601;28;20259;-69
2022/06/17 09:12:54;;;;;;;1.10;1.00;;;;;;;29.12;nan;95254.44;4982118;28;20302;-71
2022/06/17 09:15:41;;;;;;;1.07;0.80;;;;;;;29.12;nan;95240.94;4953551;28;20192;-70
2022/06/17 09:18:28;;;;;;;1.03;0.97;;;;;;;29.53;nan;95261.53;4953348;28;20211;-70
2022/06/17 09:21:04;;;;;;;1.37;1.27;;;;;;;29.57;nan;95256.97;4953530;28;20637;-69
2022/06/17 09:23:37;;;;;;;0.93;0.93;;;;;;;29.48;nan;95248.38;4953364;28;20246;-70
2022/06/17 09:26:11;;;;;;;0.57;0.57;;;;;;;29.76;nan;95254.16;4952924;28;20220;-70
2022/06/17 09:28:49;;;;;;;0.70;0.70;;;;;;;29.30;nan;95244.66;4953673;28;20517;-69
2022/06/17 09:31:40;;;;;;;0.70;0.70;;;;;;;29.79;nan;95251.50;4953012;28;20238;-69
2022/06/17 09:34:16;;;;;;;0.90;0.90;;;;;;;29.47;nan;95255.69;4953281;28;20192;-69
2022/06/17 09:36:51;;;;;;;1.13;1.03;;;;;;;29.68;nan;95249.78;4939770;29;20864;-69
2022/06/17 09:39:41;;;;;;;0.80;0.77;;;;;;;29.71;nan;95249.06;4953109;28;20284;-69
2022/06/17 09:42:33;;;;;;;6.03;1.53;;;;;;;29.23;nan;95242.66;4942330;28;20200;-69
2022/06/17 09:45:10;;;;;;;0.90;0.90;;;;;;;29.11;nan;95245.56;4966245;28;20196;-70
2022/06/17 09:47:56;;;;;;;0.83;0.83;;;;;;;29.40;nan;95238.59;4940844;28;20564;-68
2022/06/17 09:50:32;;;;;;;1.10;1.00;;;;;;;30.03;nan;95238.63;4953296;28;20698;-68
2022/06/17 09:53:09;;;;;;;1.33;1.23;;;;;;;29.58;nan;95231.53;4951943;28;20222;-69
2022/06/17 09:55:59;;;;;;;1.10;1.00;;;;;;;29.98;nan;95237.03;4964905;28;20286;-69
2022/06/17 09:58:48;;;;;;;0.50;0.50;;;;;;;30.41;nan;95233.63;4952983;28;20215;-69
2022/06/17 10:01:19;;;;;;;1.50;1.27;;;;;;;30.25;nan;95227.66;4947902;28;20211;-69
2022/06/17 10:03:46;;;;;;;1.10;0.93;;;;;;;30.53;nan;95236.03;4947281;28;20231;-70
2022/06/17 10:06:19;;;;;;;1.23;0.90;;;;;;;30.51;nan;95230.22;4966006;28;20199;-69
2022/06/17 10:09:10;;;;;;;0.87;0.87;;;;;;;30.07;nan;95232.13;4952295;28;20196;-70
2022/06/17 10:12:09;;;;;;;1.10;1.00;;;;;;;30.46;nan;95225.16;4962465;28;20223;-69
2022/06/17 10:15:00;;;;;;;1.03;0.93;;;;;;;30.21;nan;95232.25;4939028;28;20188;-70
2022/06/17 10:20:55;;;;;;;0.90;0.90;;;;;;;30.80;nan;95221.19;4951810;28;20192;-70
2022/06/17 10:23:31;;;;;;;0.93;0.90;;;;;;;30.52;nan;95222.91;4951094;29;20188;-68
2022/06/17 10:26:16;;;;;;;0.77;0.77;;;;;;;30.22;nan;95228.38;4952347;28;20611;-67
2022/06/17 10:28:49;;;;;;;1.23;1.13;;;;;;;30.40;nan;95225.91;4952589;28;20195;-70
2022/06/17 10:31:28;;;;;;;0.50;0.50;;;;;;;30.61;nan;95213.31;4951966;28;20214;-69
2022/06/17 10:34:01;;;;;;;1.07;0.87;;;;;;;30.50;nan;95220.56;4952286;28;20282;-69
2022/06/17 10:36:30;;;;;;;0.87;0.80;;;;;;;29.88;nan;95210.69;4951958;28;20259;-70
2022/06/17 10:38:57;;;;;;;1.73;1.47;;;;;;;30.13;nan;95206.28;4951762;28;20208;-69
2022/06/17 10:41:25;;;;;;;1.40;1.30;;;;;;;31.11;nan;95206.34;4952345;28;20203;-69
2022/06/17 10:43:52;;;;;;;3.90;2.13;;;;;;;31.11;nan;95194.75;4951862;28;20200;-70
2022/06/17 10:46:26;;;;;;;1.63;1.53;;;;;;;31.50;nan;95201.13;4951810;28;20204;-68
2022/06/17 10:49:25;;;;;;;1.67;1.40;;;;;;;31.51;nan;95208.13;4951999;28;20215;-69
2022/06/17 10:51:54;;;;;;;3.57;1.30;;;;;;;31.84;nan;95210.56;4946472;28;20684;-71
2022/06/17 10:54:29;;;;;;;0.73;0.67;;;;;;;31.71;nan;95212.06;4958116;28;20724;-69
2022/06/17 10:57:25;;;;;;;3.03;1.20;;;;;;;31.97;nan;95211.78;4957177;28;20210;-70
2022/06/17 10:59:52;;;;;;;0.73;0.73;;;;;;;31.04;nan;95210.94;4961119;28;20270;-67
2022/06/17 11:02:25;;;;;;;1.03;0.90;;;;;;;31.46;nan;95209.25;4938218;28;20702;-70
2022/06/17 11:04:55;;;;;;;0.80;0.80;;;;;;;31.88;nan;95221.41;4941364;29;20770;-69
2022/06/17 11:07:30;;;;;;;0.97;0.83;;;;;;;31.93;nan;95208.31;4962969;28;20199;-70
2022/06/17 11:10:06;;;;;;;0.63;0.63;;;;;;;31.23;nan;95207.94;4970892;28;20256;-69
2022/06/17 11:12:43;;;;;;;1.03;1.03;;;;;;;31.82;nan;95223.72;4967706;28;20215;-69
2022/06/17 11:15:22;;;;;;;1.47;1.37;;;;;;;31.70;nan;95216.72;4951582;28;20718;-69
2022/06/17 11:17:52;;;;;;;1.40;1.20;;;;;;;31.65;nan;95206.25;4938092;28;20211;-69
2022/06/17 11:20:26;;;;;;;0.60;0.60;;;;;;;31.39;nan;95194.91;4951558;28;20202;-69
2022/06/17 11:23:20;;;;;;;0.87;0.87;;;;;;;31.38;nan;95204.19;4939040;29;20200;-69
2022/06/17 11:25:50;;;;;;;1.30;1.20;;;;;;;31.24;nan;95204.09;4950961;28;20862;-68
2022/06/17 11:28:17;;;;;;;0.80;0.80;;;;;;;31.16;nan;95205.19;4938494;28;20226;-68
2022/06/17 11:30:57;;;;;;;1.07;0.97;;;;;;;30.96;nan;95210.13;4951276;28;20215;-70
2022/06/17 11:33:29;;;;;;;2.20;1.70;;;;;;;30.68;nan;95194.44;4945916;28;20191;-69
2022/06/17 11:36:16;;;;;;;1.53;1.43;;;;;;;30.29;nan;95198.75;4956816;28;20196;-69
2022/06/17 11:38:44;;;;;;;1.10;1.10;;;;;;;30.06;nan;95200.03;4948079;28;20571;-69
2022/06/17 11:41:19;;;;;;;1.03;0.90;;;;;;;29.87;nan;95209.13;4968334;28;20235;-69
2022/06/17 11:43:47;;;;;;;1.93;1.73;;;;;;;29.99;nan;95181.84;4958977;28;20249;-68
2022/06/17 11:46:18;;;;;;;1.27;1.17;;;;;;;29.85;nan;95200.63;4956379;28;20692;-69
2022/06/17 11:48:56;;;;;;;1.13;0.87;;;;;;;29.82;nan;95195.94;4950753;28;20855;-69
2022/06/17 11:51:31;;;;;;;0.70;0.70;;;;;;;30.10;nan;95182.72;4961402;28;20215;-68
2022/06/17 11:54:07;;;;;;;0.80;0.80;;;;;;;30.19;nan;95185.09;4952875;28;20269;-69
2022/06/17 11:56:41;;;;;;;2.00;1.70;;;;;;;29.84;nan;95189.03;4950419;28;20261;-70
2022/06/17 11:59:13;;;;;;;1.50;1.40;;;;;;;30.45;nan;95184.97;4964461;28;20196;-71
2022/06/17 12:02:00;;;;;;;1.70;1.60;;;;;;;30.74;nan;95181.34;4950924;28;20199;-69
2022/06/17 12:04:47;;;;;;;1.50;1.30;;;;;;;30.57;nan;95184.69;4956333;28;20266;-69
2022/06/17 12:07:52;;;;;;;1.17;1.07;;;;;;;30.65;nan;95184.38;4955808;28;20699;-69
2022/06/17 12:10:40;;;;;;;0.80;0.80;;;;;;;30.62;nan;95185.09;4962768;28;20207;-70
2022/06/17 12:13:11;;;;;;;1.13;1.03;;;;;;;30.40;nan;95177.22;4939568;28;20215;-68
2022/06/17 12:15:44;;;;;;;0.80;0.80;;;;;;;30.34;nan;95184.13;4950905;28;20584;-69
2022/06/17 12:18:20;;;;;;;1.40;1.23;;;;;;;30.39;nan;95175.66;4952445;28;20271;-70
2022/06/17 12:21:13;;;;;;;0.93;0.93;;;;;;;30.66;nan;95175.09;4954228;28;20200;-70
2022/06/17 12:23:47;;;;;;;0.50;0.50;;;;;;;30.37;nan;95172.53;4965001;28;20674;-69
2022/06/17 12:26:43;;;;;;;0.60;0.60;;;;;;;31.01;nan;95160.25;4956063;28;20204;-69
2022/06/17 12:29:17;;;;;;;0.90;0.90;;;;;;;31.65;nan;95162.09;4924818;28;20577;-69
2022/06/17 12:31:53;;;;;;;0.87;0.83;;;;;;;31.36;nan;95160.47;4954457;28;20851;-72
2022/06/17 12:34:37;;;;;;;0.80;0.67;;;;;;;31.65;nan;95148.56;4954606;28;20211;-69
2022/06/17 12:37:32;;;;;;;0.63;0.47;;;;;;;31.61;nan;95153.97;4954705;28;20254;-69
2022/06/17 12:40:13;;;;;;;0.77;0.60;;;;;;;32.04;nan;95154.09;4968079;28;20200;-68